createdAt,value
2019-05-30T00:01:25.402Z,25.30
2019-05-30T00:04:00.476Z,18.90
2019-05-30T00:06:36.632Z,22.77
2019-05-30T00:09:12.465Z,33.48
2019-05-30T00:11:45.313Z,24.98
2019-05-30T00:14:20.140Z,24.63
2019-05-30T00:16:58.918Z,18.20
2019-05-30T00:19:36.099Z,27.40
2019-05-30T00:22:15.014Z,21.42
2019-05-30T00:24:52.683Z,30.25
2019-05-30T00:27:26.813Z,22.22
2019-05-30T00:30:01.855Z,19.92
2019-05-30T00:32:39.515Z,23.87
2019-05-30T00:35:15.364Z,18.20
2019-05-30T00:37:51.365Z,23.20
2019-05-30T00:40:26.482Z,28.15
2019-05-30T00:43:04.287Z,18.65
2019-05-30T00:45:40.798Z,24.23
2019-05-30T00:48:17.620Z,16.37
2019-05-30T00:50:54.118Z,21.12
2019-05-30T00:53:30.675Z,18.50
2019-05-30T00:56:08.408Z,18.85
2019-05-30T00:58:45.228Z,17.50
2019-05-30T01:01:21.447Z,16.37
2019-05-30T01:03:58.677Z,21.50
2019-05-30T01:06:35.078Z,14.53
2019-05-30T01:09:11.786Z,16.50
2019-05-30T01:11:48.599Z,17.82
2019-05-30T01:14:25.809Z,23.70
2019-05-30T01:17:01.110Z,19.30
2019-05-30T01:19:37.239Z,21.20
2019-05-30T01:22:12.964Z,20.55
2019-05-30T01:24:49.649Z,18.23
2019-05-30T01:27:25.625Z,22.98
2019-05-30T01:30:01.682Z,13.40
2019-05-30T01:32:37.768Z,22.75
2019-05-30T01:35:13.825Z,24.60
2019-05-30T01:37:46.785Z,18.20
2019-05-30T01:40:19.530Z,29.30
2019-05-30T01:42:52.293Z,23.35
2019-05-30T01:45:25.004Z,29.75
2019-05-30T01:47:58.187Z,26.33
2019-05-30T01:50:30.853Z,25.37
2019-05-30T01:53:04.626Z,24.20
2019-05-30T01:55:38.472Z,25.12
2019-05-30T01:58:11.223Z,17.82
2019-05-30T02:00:43.943Z,30.60
2019-05-30T02:03:16.633Z,30.08
2019-05-30T02:05:49.411Z,24.55
2019-05-30T02:08:21.852Z,31.27
2019-05-30T02:10:54.443Z,39.88
2019-05-30T02:13:27.122Z,40.17
2019-05-30T02:15:59.703Z,41.25
2019-05-30T02:18:32.483Z,43.38
2019-05-30T02:21:05.848Z,33.08
2019-05-30T02:23:38.753Z,51.53
2019-05-30T02:26:11.773Z,37.38
2019-05-30T02:28:44.667Z,38.83
2019-05-30T02:31:37.767Z,37.75
2019-05-30T02:33:52.851Z,33.85
2019-05-30T02:36:25.434Z,30.50
2019-05-30T02:38:58.054Z,30.60
2019-05-30T02:41:30.832Z,35.60
2019-05-30T02:44:05.287Z,34.92
2019-05-30T02:46:38.153Z,32.75
2019-05-30T02:49:13.067Z,31.77
2019-05-30T02:51:44.982Z,22.32
2019-05-30T02:54:17.690Z,22.73
2019-05-30T02:56:50.664Z,27.10
2019-05-30T02:59:23.464Z,19.37
2019-05-30T03:02:02.007Z,21.57
2019-05-30T03:04:30.650Z,26.57
2019-05-30T03:07:06.031Z,19.23
2019-05-30T03:09:38.642Z,22.45
2019-05-30T03:12:13.190Z,20.23
2019-05-30T03:14:46.082Z,19.70
2019-05-30T03:17:18.657Z,25.88
2019-05-30T03:19:51.392Z,29.27
2019-05-30T03:22:23.936Z,28.45
2019-05-30T03:24:56.715Z,27.32
2019-05-30T03:27:29.474Z,37.50
2019-05-30T03:30:05.180Z,30.92
2019-05-30T03:33:04.009Z,29.57
2019-05-30T03:35:23.980Z,33.23
2019-05-30T03:37:46.257Z,25.20
2019-05-30T03:40:21.298Z,23.67
2019-05-30T03:42:53.423Z,25.95
2019-05-30T03:45:28.097Z,28.95
2019-05-30T03:48:06.524Z,20.70
2019-05-30T03:50:42.023Z,41.23
2019-05-30T03:53:16.272Z,50.17
2019-05-30T03:55:53.132Z,52.78
2019-05-30T03:58:41.795Z,47.27
2019-05-30T04:01:18.757Z,38.00
2019-05-30T04:04:01.422Z,43.58
2019-05-30T04:06:37.895Z,39.10
2019-05-30T04:09:21.285Z,33.63
2019-05-30T04:12:03.466Z,42.35
2019-05-30T04:14:39.074Z,35.70
2019-05-30T04:17:13.688Z,36.45
2019-05-30T04:19:46.403Z,32.75
2019-05-30T04:22:19.589Z,39.23
2019-05-30T04:24:52.848Z,39.00
2019-05-30T04:27:25.814Z,38.40
2019-05-30T04:29:59.918Z,40.90
2019-05-30T04:32:32.702Z,38.63
2019-05-30T04:35:05.498Z,38.85
2019-05-30T04:37:38.334Z,39.70
2019-05-30T04:40:13.269Z,37.13
2019-05-30T04:42:45.873Z,35.45
2019-05-30T04:45:20.348Z,38.70
2019-05-30T04:47:53.133Z,29.82
2019-05-30T04:50:25.763Z,44.00
2019-05-30T04:52:58.224Z,34.05
2019-05-30T04:55:30.833Z,36.53
2019-05-30T04:58:03.574Z,33.63
2019-05-30T05:00:36.305Z,40.43
2019-05-30T05:03:09.025Z,30.52
2019-05-30T05:05:41.647Z,33.95
2019-05-30T05:08:15.721Z,31.42
2019-05-30T05:10:48.623Z,34.35
2019-05-30T05:13:22.449Z,32.13
2019-05-30T05:15:55.186Z,29.18
2019-05-30T05:18:27.713Z,30.25
2019-05-30T05:21:00.234Z,27.75
2019-05-30T05:23:32.622Z,27.00
2019-05-30T05:26:05.192Z,27.37
2019-05-30T05:28:38.093Z,25.17
2019-05-30T05:31:10.693Z,29.23
2019-05-30T05:33:55.760Z,21.73
2019-05-30T05:36:17.343Z,23.87
2019-05-30T05:39:02.306Z,21.60
2019-05-30T05:41:35.156Z,31.95
2019-05-30T05:44:07.753Z,21.62
2019-05-30T05:46:40.332Z,21.17
2019-05-30T05:49:12.812Z,35.15
2019-05-30T05:51:45.272Z,17.45
2019-05-30T05:54:18.861Z,22.22
2019-05-30T05:56:51.472Z,13.28
2019-05-30T05:59:25.111Z,11.75
2019-05-30T06:01:57.810Z,11.57
2019-05-30T06:04:30.296Z,11.35
2019-05-30T06:07:02.733Z,11.90
2019-05-30T06:09:35.084Z,13.35
2019-05-30T06:12:07.692Z,11.53
2019-05-30T06:14:40.762Z,13.90
2019-05-30T06:17:13.402Z,11.40
2019-05-30T06:19:46.957Z,15.75
2019-05-30T06:22:19.739Z,12.95
2019-05-30T06:24:52.353Z,14.87
2019-05-30T06:27:28.124Z,16.70
2019-05-30T06:30:00.801Z,15.23
2019-05-30T06:32:33.423Z,21.55
2019-05-30T06:35:06.672Z,14.78
2019-05-30T06:37:39.322Z,13.80
2019-05-30T06:40:12.054Z,17.48
2019-05-30T06:42:44.599Z,14.55
2019-05-30T06:45:17.093Z,15.32
2019-05-30T06:47:49.673Z,14.18
2019-05-30T06:50:24.624Z,15.10
2019-05-30T06:52:57.344Z,16.07
2019-05-30T06:55:29.832Z,16.90
2019-05-30T06:58:02.273Z,20.20
2019-05-30T07:00:35.052Z,17.90
2019-05-30T07:03:07.627Z,8.33
2019-05-30T07:05:40.746Z,7.55
2019-05-30T07:08:13.463Z,6.85
2019-05-30T07:10:45.872Z,8.53
2019-05-30T07:13:18.553Z,5.78
2019-05-30T07:15:51.034Z,6.40
2019-05-30T07:18:23.744Z,7.72
2019-05-30T07:20:56.150Z,6.25
2019-05-30T07:23:30.100Z,7.37
2019-05-30T07:26:03.665Z,6.15
2019-05-30T07:28:37.353Z,4.90
2019-05-30T07:31:09.959Z,6.58
2019-05-30T07:33:42.534Z,3.70
2019-05-30T07:36:15.067Z,7.10
2019-05-30T07:38:47.662Z,6.47
2019-05-30T07:41:20.092Z,3.83
2019-05-30T07:43:52.577Z,5.00
2019-05-30T07:46:25.133Z,2.77
2019-05-30T07:48:57.693Z,3.10
2019-05-30T07:51:30.684Z,4.28
2019-05-30T07:54:03.232Z,4.22
2019-05-30T07:56:37.876Z,4.00
2019-05-30T07:59:10.163Z,5.08
2019-05-30T08:01:42.889Z,4.62
2019-05-30T08:04:15.453Z,3.22
2019-05-30T08:06:47.930Z,7.55
2019-05-30T08:09:20.593Z,3.80
2019-05-30T08:11:53.602Z,5.05
2019-05-30T08:14:26.979Z,6.75
2019-05-30T08:16:59.622Z,8.90
2019-05-30T08:19:32.790Z,4.60
2019-05-30T08:22:06.632Z,7.03
2019-05-30T08:24:39.052Z,3.90
2019-05-30T08:27:11.623Z,4.47
2019-05-30T08:29:44.182Z,5.50
2019-05-30T08:32:16.682Z,3.30
2019-05-30T08:34:49.296Z,3.95
2019-05-30T08:37:21.702Z,6.28
2019-05-30T08:39:54.536Z,7.60
2019-05-30T08:42:28.005Z,4.35
2019-05-30T08:45:01.316Z,3.10
2019-05-30T08:47:34.053Z,5.83
2019-05-30T08:50:07.052Z,4.60
2019-05-30T08:52:40.881Z,3.40
2019-05-30T08:55:14.973Z,5.37
2019-05-30T08:57:47.434Z,4.83
2019-05-30T09:00:20.141Z,4.70
2019-05-30T09:02:53.563Z,5.58
2019-05-30T09:05:26.184Z,7.78
2019-05-30T09:07:58.613Z,11.63
2019-05-30T09:10:31.123Z,3.42
2019-05-30T09:13:03.683Z,5.28
2019-05-30T09:15:37.510Z,4.35
2019-05-30T09:18:10.312Z,5.33
2019-05-30T09:20:43.758Z,4.10
2019-05-30T09:23:16.305Z,7.55
2019-05-30T09:25:49.474Z,5.10
2019-05-30T09:28:22.242Z,8.43
2019-05-30T09:30:54.768Z,8.08
2019-05-30T09:33:27.267Z,1.80
2019-05-30T09:36:12.597Z,6.78
2019-05-30T09:38:35.513Z,10.20
2019-05-30T09:41:08.114Z,4.33
2019-05-30T09:43:41.508Z,3.85
2019-05-30T09:46:15.164Z,4.80
2019-05-30T09:48:48.694Z,6.78
2019-05-30T09:51:21.302Z,6.60
2019-05-30T09:53:53.845Z,4.28
2019-05-30T09:56:26.222Z,3.47
2019-05-30T09:58:58.663Z,6.65
2019-05-30T10:01:31.163Z,6.70
2019-05-30T10:04:03.683Z,4.80
2019-05-30T10:06:39.152Z,4.78
2019-05-30T10:09:11.813Z,6.50
2019-05-30T10:11:45.610Z,5.45
2019-05-30T10:14:18.364Z,6.42
2019-05-30T10:16:54.805Z,5.97
2019-05-30T10:19:25.095Z,5.67
2019-05-30T10:21:57.573Z,8.08
2019-05-30T10:24:30.033Z,12.13
2019-05-30T10:27:02.523Z,4.75
2019-05-30T10:29:36.232Z,4.42
2019-05-30T10:32:09.603Z,7.95
2019-05-30T10:34:42.083Z,2.35
2019-05-30T10:37:14.853Z,4.17
2019-05-30T10:39:47.392Z,3.98
2019-05-30T10:42:20.781Z,7.95
2019-05-30T10:44:54.592Z,5.70
2019-05-30T10:47:27.561Z,7.35
2019-05-30T10:50:00.133Z,2.35
2019-05-30T10:52:32.752Z,6.37
2019-05-30T10:55:05.772Z,7.08
2019-05-30T10:57:38.372Z,5.45
2019-05-30T11:00:13.313Z,3.85
2019-05-30T11:02:47.370Z,8.10
2019-05-30T11:05:21.532Z,2.52
2019-05-30T11:08:05.973Z,4.65
2019-05-30T11:10:39.323Z,6.47
2019-05-30T11:13:13.924Z,5.00
2019-05-30T11:15:46.896Z,4.20
2019-05-30T11:18:20.854Z,14.95
2019-05-30T11:20:54.086Z,7.47
2019-05-30T11:25:58.826Z,11.43
2019-05-30T11:28:31.363Z,10.13
2019-05-30T11:33:38.193Z,11.03
2019-05-30T11:36:10.629Z,11.38
2019-05-30T11:38:43.035Z,6.95
2019-05-30T11:41:15.613Z,7.67
2019-05-30T11:43:49.372Z,6.55
2019-05-30T11:46:22.033Z,7.75
2019-05-30T11:48:55.683Z,5.12
2019-05-30T11:51:28.343Z,8.08
2019-05-30T11:54:01.212Z,6.83
2019-05-30T11:56:34.534Z,7.08
2019-05-30T11:59:07.018Z,5.60
2019-05-30T12:01:39.653Z,5.87
2019-05-30T12:04:12.142Z,6.80
2019-05-30T12:06:44.839Z,6.67
2019-05-30T12:09:19.816Z,12.33
2019-05-30T12:11:53.113Z,6.85
2019-05-30T12:14:25.738Z,8.93
2019-05-30T12:16:59.411Z,8.58
2019-05-30T12:19:31.982Z,8.30
2019-05-30T12:22:04.555Z,7.67
2019-05-30T12:24:37.062Z,9.70
2019-05-30T12:27:09.695Z,6.12
2019-05-30T12:30:02.647Z,6.78
2019-05-30T12:32:36.526Z,6.25
2019-05-30T12:35:09.593Z,4.72
2019-05-30T12:37:54.054Z,5.08
2019-05-30T12:40:18.043Z,4.47
2019-05-30T12:42:53.858Z,4.92
2019-05-30T12:45:25.984Z,3.67
2019-05-30T12:47:59.261Z,3.35
2019-05-30T12:50:31.733Z,5.25
2019-05-30T12:53:04.164Z,4.95
2019-05-30T12:55:37.699Z,3.70
2019-05-30T12:58:10.463Z,6.30
2019-05-30T13:00:44.652Z,2.75
2019-05-30T13:03:17.193Z,2.15
2019-05-30T13:05:49.634Z,3.33
2019-05-30T13:08:22.315Z,4.72
2019-05-30T13:10:55.511Z,4.92
2019-05-30T13:13:28.248Z,5.17
2019-05-30T13:16:04.618Z,6.03
2019-05-30T13:18:35.043Z,8.23
2019-05-30T13:21:07.753Z,6.50
2019-05-30T13:23:40.323Z,5.33
2019-05-30T13:26:12.900Z,4.22
2019-05-30T13:28:45.543Z,7.55
2019-05-30T13:31:24.443Z,6.33
2019-05-30T13:34:01.059Z,10.43
2019-05-30T13:36:35.423Z,4.65
2019-05-30T13:39:08.943Z,2.65
2019-05-30T13:41:41.413Z,3.35
2019-05-30T13:44:18.531Z,6.97
2019-05-30T13:46:51.473Z,6.12
2019-05-30T13:49:25.343Z,5.05
2019-05-30T13:51:58.920Z,4.78
2019-05-30T13:54:31.892Z,3.02
2019-05-30T13:57:05.669Z,2.87
2019-05-30T13:59:41.224Z,5.40
2019-05-30T14:02:13.783Z,3.87
2019-05-30T14:04:46.412Z,6.97
2019-05-30T14:07:19.607Z,3.40
2019-05-30T14:09:52.312Z,6.30
2019-05-30T14:12:25.092Z,3.12
2019-05-30T14:14:58.812Z,3.90
2019-05-30T14:17:32.080Z,4.05
2019-05-30T14:20:05.183Z,3.85
2019-05-30T14:22:37.775Z,3.72
2019-05-30T14:25:11.791Z,5.95
2019-05-30T14:27:48.314Z,6.15
2019-05-30T14:30:24.582Z,6.08
2019-05-30T14:32:57.493Z,5.20
2019-05-30T14:35:30.444Z,5.42
2019-05-30T14:38:04.573Z,4.85
2019-05-30T14:40:37.398Z,5.85
2019-05-30T14:43:11.502Z,3.98
2019-05-30T14:45:44.371Z,5.35
2019-05-30T14:48:17.005Z,5.10
2019-05-30T14:50:50.423Z,4.78
2019-05-30T14:53:27.357Z,7.70
2019-05-30T14:56:01.392Z,6.92
2019-05-30T14:58:33.852Z,3.50
2019-05-30T15:01:07.673Z,4.28
2019-05-30T15:03:40.149Z,7.40
2019-05-30T15:06:15.775Z,6.80
2019-05-30T15:08:47.014Z,4.28
2019-05-30T15:11:19.585Z,5.65
2019-05-30T15:13:52.115Z,4.65
2019-05-30T15:16:24.721Z,3.02
2019-05-30T15:18:57.233Z,5.35
2019-05-30T15:21:29.983Z,5.10
2019-05-30T15:24:02.683Z,4.47
2019-05-30T15:26:35.273Z,7.47
2019-05-30T15:29:10.071Z,4.67
2019-05-30T15:31:42.741Z,6.45
2019-05-30T15:34:16.738Z,6.42
2019-05-30T15:36:49.713Z,5.65
2019-05-30T15:39:32.278Z,6.00
2019-05-30T15:41:57.423Z,5.40
2019-05-30T15:44:30.299Z,4.47
2019-05-30T15:47:04.612Z,3.87
2019-05-30T15:49:37.892Z,4.72
2019-05-30T15:52:11.642Z,4.72
2019-05-30T15:54:45.106Z,2.72
2019-05-30T15:57:17.956Z,4.80
2019-05-30T15:59:50.783Z,4.28
2019-05-30T16:02:23.894Z,2.62
2019-05-30T16:04:57.820Z,6.03
2019-05-30T16:07:32.952Z,3.55
2019-05-30T16:10:10.838Z,3.05
2019-05-30T16:12:52.683Z,6.37
2019-05-30T16:15:26.223Z,2.52
2019-05-30T16:18:03.080Z,5.78
2019-05-30T16:20:36.234Z,2.02
2019-05-30T16:23:14.590Z,5.33
2019-05-30T16:25:47.712Z,5.10
2019-05-30T16:28:21.774Z,11.63
2019-05-30T16:30:54.752Z,11.30
2019-05-30T16:33:27.562Z,9.48
2019-05-30T16:36:00.453Z,10.55
2019-05-30T16:38:33.293Z,5.83
2019-05-30T16:41:06.402Z,8.53
2019-05-30T16:43:39.082Z,4.55
2019-05-30T16:46:12.112Z,5.33
2019-05-30T16:48:44.681Z,4.62
2019-05-30T16:51:20.991Z,7.40
2019-05-30T16:53:57.410Z,7.40
2019-05-30T16:56:32.351Z,6.90
2019-05-30T16:59:10.876Z,4.08
2019-05-30T17:01:44.113Z,3.83
2019-05-30T17:04:18.914Z,4.97
2019-05-30T17:06:53.430Z,4.95
2019-05-30T17:09:27.734Z,7.83
2019-05-30T17:12:01.302Z,8.25
2019-05-30T17:14:35.763Z,4.25
2019-05-30T17:17:09.599Z,6.25
2019-05-30T17:19:46.323Z,5.95
2019-05-30T17:22:22.703Z,6.17
2019-05-30T17:24:59.832Z,4.17
2019-05-30T17:27:35.858Z,3.95
2019-05-30T17:30:12.171Z,3.25
2019-05-30T17:32:46.667Z,4.55
2019-05-30T17:35:22.072Z,4.12
2019-05-30T17:37:58.548Z,3.47
2019-05-30T17:40:44.125Z,4.33
2019-05-30T17:43:09.473Z,6.60
2019-05-30T17:45:43.183Z,5.12
2019-05-30T17:48:19.350Z,6.00
2019-05-30T17:50:54.172Z,7.05
2019-05-30T17:53:27.959Z,7.65
2019-05-30T17:56:00.862Z,7.05
2019-05-30T17:58:34.142Z,6.28
2019-05-30T18:01:06.902Z,6.67
2019-05-30T18:03:39.692Z,8.65
2019-05-30T18:06:12.233Z,5.78
2019-05-30T18:08:45.209Z,8.83
2019-05-30T18:11:17.784Z,6.97
2019-05-30T18:13:50.260Z,7.28
2019-05-30T18:16:23.090Z,6.28
2019-05-30T18:18:55.722Z,9.50
2019-05-30T18:21:29.490Z,8.10
2019-05-30T18:24:02.239Z,6.92
2019-05-30T18:26:34.783Z,10.80
2019-05-30T18:29:07.581Z,8.00
2019-05-30T18:31:40.213Z,8.10
2019-05-30T18:34:16.546Z,6.05
2019-05-30T18:36:52.744Z,9.15
2019-05-30T18:39:32.877Z,8.15
2019-05-30T18:42:08.232Z,10.53
2019-05-30T18:44:42.905Z,7.40
2019-05-30T18:47:16.165Z,9.70
2019-05-30T18:49:49.486Z,6.92
2019-05-30T18:52:22.507Z,10.15
2019-05-30T18:54:56.857Z,6.62
2019-05-30T18:57:30.796Z,4.37
2019-05-30T19:00:05.092Z,4.40
2019-05-30T19:02:38.523Z,7.17
2019-05-30T19:05:13.272Z,6.00
2019-05-30T19:07:46.336Z,6.80
2019-05-30T19:10:19.502Z,7.47
2019-05-30T19:12:52.112Z,7.03
2019-05-30T19:15:31.222Z,8.65
2019-05-30T19:18:03.992Z,5.03
2019-05-30T19:20:36.844Z,10.23
2019-05-30T19:23:09.833Z,7.33
2019-05-30T19:25:42.602Z,10.20
2019-05-30T19:28:17.492Z,12.05
2019-05-30T19:30:50.511Z,7.85
2019-05-30T19:33:23.753Z,6.50
2019-05-30T19:35:56.452Z,9.50
2019-05-30T19:38:31.184Z,8.08
2019-05-30T19:41:04.092Z,6.87
2019-05-30T19:43:38.077Z,9.75
2019-05-30T19:46:13.185Z,7.10
2019-05-30T19:48:45.655Z,6.53
2019-05-30T19:51:20.936Z,11.15
2019-05-30T19:53:53.393Z,8.58
2019-05-30T19:56:26.322Z,8.80
2019-05-30T19:58:58.922Z,7.12
2019-05-30T20:01:31.822Z,8.63
2019-05-30T20:04:06.067Z,7.58
2019-05-30T20:06:39.252Z,8.68
2019-05-30T20:09:12.302Z,8.98
2019-05-30T20:12:01.770Z,6.97
2019-05-30T20:14:19.942Z,9.65
2019-05-30T20:16:53.106Z,7.62
2019-05-30T20:19:26.221Z,7.78
2019-05-30T20:21:58.925Z,6.05
2019-05-30T20:24:32.085Z,6.50
2019-05-30T20:27:04.903Z,11.43
2019-05-30T20:29:37.452Z,7.67
2019-05-30T20:32:10.292Z,6.80
2019-05-30T20:34:43.205Z,10.25
2019-05-30T20:37:16.027Z,6.90
2019-05-30T20:39:48.832Z,7.90
2019-05-30T20:42:21.502Z,7.05
2019-05-30T20:44:54.152Z,9.80
2019-05-30T20:47:27.046Z,8.20
2019-05-30T20:49:59.842Z,5.90
2019-05-30T20:52:32.405Z,11.60
2019-05-30T20:55:05.608Z,7.67
2019-05-30T20:57:38.418Z,9.05
2019-05-30T21:00:12.082Z,6.97
2019-05-30T21:02:45.073Z,8.33
2019-05-30T21:05:17.923Z,4.50
2019-05-30T21:07:52.681Z,8.33
2019-05-30T21:10:25.443Z,5.80
2019-05-30T21:13:00.352Z,12.43
2019-05-30T21:15:35.902Z,6.87
2019-05-30T21:18:08.672Z,7.42
2019-05-30T21:20:42.134Z,7.87
2019-05-30T21:23:14.653Z,6.50
2019-05-30T21:25:47.813Z,5.03
2019-05-30T21:28:20.688Z,9.05
2019-05-30T21:30:53.143Z,10.10
2019-05-30T21:33:26.157Z,10.90
2019-05-30T21:35:59.015Z,7.92
2019-05-30T21:38:31.763Z,9.63
2019-05-30T21:41:04.534Z,8.53
2019-05-30T21:43:38.253Z,6.90
2019-05-30T21:46:11.872Z,5.72
2019-05-30T21:48:45.342Z,6.75
2019-05-30T21:51:18.192Z,7.50
2019-05-30T21:53:51.162Z,5.50
2019-05-30T21:56:24.532Z,4.28
2019-05-30T21:58:57.341Z,9.13
2019-05-30T22:01:33.623Z,10.85
2019-05-30T22:04:08.445Z,6.33
2019-05-30T22:06:41.244Z,7.92
2019-05-30T22:09:14.493Z,6.22
2019-05-30T22:11:47.762Z,4.47
2019-05-30T22:14:20.953Z,6.00
2019-05-30T22:16:53.802Z,5.25
2019-05-30T22:19:26.662Z,5.53
2019-05-30T22:21:59.463Z,8.70
2019-05-30T22:24:32.242Z,6.33
2019-05-30T22:27:04.852Z,6.95
2019-05-30T22:29:40.328Z,12.40
2019-05-30T22:32:11.577Z,3.90
2019-05-30T22:34:44.689Z,6.53
2019-05-30T22:37:17.191Z,5.95
2019-05-30T22:39:50.939Z,6.55
2019-05-30T22:42:23.504Z,4.78
2019-05-30T22:44:56.546Z,4.87
2019-05-30T22:47:29.264Z,7.78
2019-05-30T22:50:01.742Z,7.33
2019-05-30T22:52:34.253Z,6.28
2019-05-30T22:55:06.925Z,11.20
2019-05-30T22:57:39.202Z,6.10
2019-05-30T23:00:12.088Z,10.13
2019-05-30T23:02:45.869Z,6.97
2019-05-30T23:05:18.365Z,5.85
2019-05-30T23:07:51.445Z,5.65
2019-05-30T23:10:24.046Z,4.75
2019-05-30T23:12:56.502Z,8.38
2019-05-30T23:15:29.083Z,6.58
2019-05-30T23:18:01.963Z,10.43
2019-05-30T23:20:36.052Z,9.43
2019-05-30T23:23:08.794Z,8.43
2019-05-30T23:25:41.522Z,6.08
2019-05-30T23:28:14.082Z,5.30
2019-05-30T23:30:47.798Z,4.28
2019-05-30T23:33:20.852Z,6.90
2019-05-30T23:35:54.551Z,6.37
2019-05-30T23:38:28.552Z,6.00
2019-05-30T23:41:01.082Z,6.37
2019-05-30T23:43:34.002Z,8.25
2019-05-30T23:46:06.482Z,6.85
2019-05-30T23:48:39.333Z,5.87
2019-05-30T23:51:11.853Z,5.03
2019-05-30T23:53:44.539Z,9.40
2019-05-30T23:56:17.303Z,6.47
2019-05-30T23:58:50.573Z,5.95
